Time;durP1;ratioP1;P1;durP2;ratioP2;P2;SDS_P1;SDS_P2;PMS_P1;PMS_P2;Temp;Humidity;BMP_temperature;BMP_pressure;BME280_temperature;BME280_humidity;BME280_pressure;Samples;Min_cycle;Max_cycle;Signal;HPM_P1;HPM_P2
2023/07/11 00:00:51;;;;;;;4.72;2.33;;;19.00;1.00;;;;;;4954737;29;20931;-85
2023/07/11 00:03:17;;;;;;;5.50;2.80;;;18.90;1.00;;;;;;4957711;29;20050;-85
2023/07/11 00:05:43;;;;;;;3.90;2.65;;;18.90;1.00;;;;;;4958248;29;20035;-84
2023/07/11 00:08:09;;;;;;;3.38;1.95;;;18.80;1.00;;;;;;4956224;29;20034;-85
2023/07/11 00:10:36;;;;;;;4.30;2.22;;;18.70;1.00;;;;;;4963587;29;20050;-84
2023/07/11 00:13:02;;;;;;;2.70;2.15;;;18.60;1.00;;;;;;4955295;28;20035;-85
2023/07/11 00:15:28;;;;;;;3.78;2.20;;;18.50;1.00;;;;;;4955970;29;20035;-84
2023/07/11 00:17:55;;;;;;;4.90;1.92;;;18.60;1.00;;;;;;4955592;29;20038;-86
2023/07/11 00:20:21;;;;;;;5.10;2.45;;;18.50;1.00;;;;;;4953214;29;20031;-85
2023/07/11 00:22:48;;;;;;;4.68;2.83;;;18.50;1.00;;;;;;4953929;29;20043;-85
2023/07/11 00:25:15;;;;;;;4.30;2.63;;;18.40;1.00;;;;;;4942970;29;20046;-85
2023/07/11 00:27:41;;;;;;;4.55;2.03;;;18.40;1.00;;;;;;4951873;29;20414;-85
2023/07/11 00:30:08;;;;;;;3.95;2.60;;;18.30;1.00;;;;;;4954720;29;20134;-85
2023/07/11 00:32:35;;;;;;;7.15;2.97;;;18.20;1.00;;;;;;4935761;29;20046;-86
2023/07/11 00:35:01;;;;;;;4.63;3.03;;;18.30;1.00;;;;;;4923584;29;20058;-85
2023/07/11 00:37:27;;;;;;;3.55;2.22;;;18.30;1.00;;;;;;4954814;29;20035;-85
2023/07/11 00:39:53;;;;;;;5.55;2.42;;;18.20;1.00;;;;;;4952151;29;20034;-85
2023/07/11 00:42:20;;;;;;;4.10;2.55;;;18.20;1.00;;;;;;4931539;29;20047;-85
2023/07/11 00:44:50;;;;;;;5.03;2.83;;;18.20;1.00;;;;;;4932097;29;20055;-85
2023/07/11 00:47:17;;;;;;;6.40;2.78;;;18.20;1.00;;;;;;4936649;29;20152;-84
2023/07/11 00:49:44;;;;;;;4.75;2.40;;;18.00;1.00;;;;;;4952899;29;20035;-84
2023/07/11 00:52:14;;;;;;;3.58;2.47;;;17.90;1.00;;;;;;4935474;29;20047;-85
2023/07/11 00:54:44;;;;;;;3.15;1.88;;;17.70;1.00;;;;;;4921054;29;20054;-82
2023/07/11 00:57:10;;;;;;;4.25;2.38;;;17.60;1.00;;;;;;4953798;29;20371;-83
2023/07/11 00:59:38;;;;;;;2.67;2.17;;;17.50;1.00;;;;;;4954604;29;20498;-84
2023/07/11 01:02:14;;;;;;;3.85;1.98;;;17.40;1.00;;;;;;4954315;29;20042;-83
2023/07/11 01:04:40;;;;;;;4.50;2.63;;;17.20;1.00;;;;;;4935194;29;20078;-82
2023/07/11 01:07:08;;;;;;;4.15;2.53;;;17.20;1.00;;;;;;4936587;29;20047;-84
2023/07/11 01:09:35;;;;;;;4.78;2.72;;;17.10;1.00;;;;;;4953107;29;20039;-85
2023/07/11 01:12:05;;;;;;;6.70;2.65;;;17.10;1.00;;;;;;4936147;29;20031;-83
2023/07/11 01:14:31;;;;;;;3.42;2.38;;;17.10;1.00;;;;;;4952721;29;20045;-84
2023/07/11 01:16:58;;;;;;;6.28;2.63;;;17.10;1.00;;;;;;4935124;29;20120;-84
2023/07/11 01:19:24;;;;;;;4.95;2.78;;;17.20;1.00;;;;;;4926689;29;20051;-84
2023/07/11 01:21:51;;;;;;;6.20;2.88;;;17.10;1.00;;;;;;4951860;29;20035;-84
2023/07/11 01:24:19;;;;;;;3.33;2.55;;;17.10;1.00;;;;;;4933490;29;20051;-85
2023/07/11 01:26:46;;;;;;;4.47;2.78;;;17.10;1.00;;;;;;4930730;29;20059;-83
2023/07/11 01:29:12;;;;;;;3.00;2.40;;;17.20;1.00;;;;;;4930454;29;20040;-84
2023/07/11 01:31:40;;;;;;;5.68;2.63;;;17.10;1.00;;;;;;4930325;29;20046;-82
2023/07/11 01:34:07;;;;;;;4.72;2.55;;;16.90;1.00;;;;;;4930835;29;20039;-84
2023/07/11 01:36:34;;;;;;;4.40;3.42;;;16.90;31.00;;;;;;4931816;29;20028;-85
2023/07/11 01:39:00;;;;;;;4.00;2.42;;;16.90;47.30;;;;;;4931012;29;20082;-85
2023/07/11 01:41:27;;;;;;;3.90;2.80;;;17.00;27.70;;;;;;4932428;29;20440;-85
2023/07/11 01:43:54;;;;;;;5.20;2.45;;;17.10;23.00;;;;;;4927924;29;20040;-85
2023/07/11 01:46:20;;;;;;;11.40;2.97;;;17.00;17.30;;;;;;4931324;29;20036;-84
2023/07/11 01:48:46;;;;;;;6.45;3.35;;;17.00;23.40;;;;;;4934995;29;20033;-85
2023/07/11 01:51:12;;;;;;;3.08;2.00;;;17.00;36.00;;;;;;4930011;29;20044;-84
2023/07/11 01:53:39;;;;;;;3.08;2.58;;;17.00;47.20;;;;;;4931191;29;20431;-84
2023/07/11 01:56:05;;;;;;;4.22;2.50;;;17.10;26.60;;;;;;4932126;29;20047;-85
2023/07/11 01:58:33;;;;;;;4.95;3.05;;;17.10;23.20;;;;;;4931987;29;20476;-85
2023/07/11 02:00:59;;;;;;;4.63;2.65;;;17.10;33.60;;;;;;4927417;29;20051;-85
2023/07/11 02:03:26;;;;;;;8.55;2.50;;;17.10;12.20;;;;;;4931116;29;20059;-85
2023/07/11 02:05:54;;;;;;;4.05;2.55;;;17.00;28.00;;;;;;4926782;29;20112;-84
2023/07/11 02:08:20;;;;;;;2.83;2.15;;;16.90;51.50;;;;;;4932224;29;20035;-83
2023/07/11 02:10:47;;;;;;;3.47;2.20;;;16.80;67.10;;;;;;4933876;29;20031;-84
2023/07/11 02:13:13;;;;;;;4.70;2.88;;;16.80;51.60;;;;;;4932343;29;20035;-84
2023/07/11 02:15:41;;;;;;;5.68;3.03;;;16.70;54.60;;;;;;4933445;29;20490;-84
2023/07/11 02:18:08;;;;;;;4.38;2.30;;;16.80;69.00;;;;;;4922195;29;20048;-84
2023/07/11 02:20:39;;;;;;;4.20;2.72;;;16.90;34.50;;;;;;4931902;29;20040;-83
2023/07/11 02:23:06;;;;;;;4.65;2.30;;;16.90;27.00;;;;;;4930970;29;20046;-83
2023/07/11 02:25:32;;;;;;;7.85;3.67;;;16.90;18.30;;;;;;4935659;29;20047;-83
2023/07/11 02:27:58;;;;;;;2.88;1.95;;;16.80;19.40;;;;;;4947015;29;20051;-84
2023/07/11 02:30:24;;;;;;;4.45;2.47;;;16.70;28.10;;;;;;4949625;29;20039;-84
2023/07/11 02:32:50;;;;;;;3.53;2.22;;;16.70;33.70;;;;;;4936511;29;20043;-85
2023/07/11 02:35:16;;;;;;;4.22;2.90;;;16.70;36.10;;;;;;4932502;29;20043;-83
2023/07/11 02:37:42;;;;;;;3.78;2.42;;;16.60;42.80;;;;;;4954527;29;20031;-83
2023/07/11 02:40:09;;;;;;;4.57;3.03;;;16.50;65.10;;;;;;4955031;29;20037;-85
2023/07/11 02:42:35;;;;;;;4.18;2.50;;;16.50;86.30;;;;;;4955151;29;20031;-83
2023/07/11 02:45:01;;;;;;;4.10;2.33;;;16.50;80.10;;;;;;4935583;29;20056;-84
2023/07/11 02:47:28;;;;;;;4.05;2.53;;;16.70;67.90;;;;;;4951538;29;20043;-85
2023/07/11 02:49:54;;;;;;;4.80;3.05;;;16.70;62.00;;;;;;4937025;29;20043;-84
2023/07/11 02:52:20;;;;;;;8.75;3.10;;;16.80;43.90;;;;;;4953300;29;20032;-84
2023/07/11 02:54:46;;;;;;;4.68;2.53;;;16.70;33.90;;;;;;4935791;29;20058;-83
2023/07/11 02:57:12;;;;;;;3.90;2.25;;;16.60;41.50;;;;;;4953813;29;20039;-84
2023/07/11 02:59:38;;;;;;;4.18;2.78;;;16.50;49.20;;;;;;4953351;29;20036;-85
2023/07/11 03:02:05;;;;;;;10.30;3.25;;;16.30;62.50;;;;;;4952935;29;20050;-85
2023/07/11 03:04:31;;;;;;;4.93;2.60;;;16.20;70.20;;;;;;4934894;29;20051;-85
2023/07/11 03:06:58;;;;;;;3.90;2.95;;;16.20;90.80;;;;;;4953914;29;20031;-83
2023/07/11 03:09:26;;;;;;;9.98;2.63;;;16.10;81.70;;;;;;4955463;29;20039;-85
2023/07/11 03:11:52;;;;;;;5.85;2.33;;;16.00;84.90;;;;;;4937074;29;20047;-84
2023/07/11 03:14:19;;;;;;;4.90;2.72;;;15.90;93.90;;;;;;4937297;29;20043;-85
2023/07/11 03:16:52;;;;;;;5.43;3.50;;;16.00;99.90;;;;;;4954254;29;20031;-84
2023/07/11 03:19:22;;;;;;;5.82;3.13;;;16.10;97.90;;;;;;4954548;29;20035;-86
2023/07/11 03:21:49;;;;;;;5.07;3.63;;;16.20;91.50;;;;;;4935587;29;20046;-83
2023/07/11 03:24:16;;;;;;;4.03;2.67;;;16.20;74.70;;;;;;4947895;29;20047;-85
2023/07/11 03:26:45;;;;;;;4.03;2.90;;;16.20;61.80;;;;;;4958159;29;20410;-84
2023/07/11 03:29:13;;;;;;;3.92;2.55;;;16.20;71.10;;;;;;4960235;29;20050;-83
2023/07/11 03:31:40;;;;;;;4.53;2.92;;;16.20;69.10;;;;;;4958541;29;20043;-82
2023/07/11 03:34:06;;;;;;;6.68;2.28;;;16.00;76.90;;;;;;4933687;29;20042;-84
2023/07/11 03:36:32;;;;;;;3.92;2.55;;;16.00;91.90;;;;;;4936797;29;20032;-84
2023/07/11 03:38:58;;;;;;;5.88;2.55;;;16.00;92.60;;;;;;4952905;29;20027;-85
2023/07/11 03:41:24;;;;;;;4.10;1.98;;;16.00;88.50;;;;;;4932733;29;20040;-84
2023/07/11 03:43:51;;;;;;;5.10;3.33;;;16.00;90.10;;;;;;4949304;29;20039;-84
2023/07/11 03:46:17;;;;;;;5.40;3.67;;;16.10;89.90;;;;;;4952817;28;20035;-85
2023/07/11 03:48:43;;;;;;;4.65;3.10;;;16.00;90.60;;;;;;4954278;29;20043;-84
2023/07/11 03:51:09;;;;;;;4.68;3.45;;;16.00;93.80;;;;;;4950906;29;20741;-85
2023/07/11 03:53:36;;;;;;;8.52;3.30;;;16.00;91.10;;;;;;4936040;29;20367;-85
2023/07/11 03:56:04;;;;;;;4.57;3.33;;;16.00;79.20;;;;;;4948966;29;20036;-85
2023/07/11 03:58:30;;;;;;;5.00;3.00;;;16.00;87.70;;;;;;4933157;29;20036;-85
2023/07/11 04:00:56;;;;;;;5.07;2.83;;;16.10;94.60;;;;;;4935858;29;20043;-86
2023/07/11 04:03:23;;;;;;;4.38;2.80;;;16.10;84.60;;;;;;4937770;29;20040;-85
2023/07/11 04:05:50;;;;;;;3.90;2.70;;;16.10;60.80;;;;;;4945890;29;20055;-83
2023/07/11 04:08:16;;;;;;;4.25;2.35;;;16.10;49.80;;;;;;4953562;29;20047;-87
2023/07/11 04:10:42;;;;;;;5.07;3.10;;;16.10;53.30;;;;;;4953419;29;20474;-84
2023/07/11 04:13:08;;;;;;;12.30;2.47;;;16.20;55.90;;;;;;4949059;29;20042;-85
2023/07/11 04:15:34;;;;;;;5.25;3.33;;;16.30;48.00;;;;;;4951322;29;20046;-84
2023/07/11 04:18:00;;;;;;;5.95;2.95;;;16.30;51.30;;;;;;4952790;29;20046;-84
2023/07/11 04:20:26;;;;;;;3.47;2.38;;;16.40;49.40;;;;;;4933907;29;20061;-84
2023/07/11 04:22:53;;;;;;;7.70;3.00;;;16.50;31.80;;;;;;4925594;29;20047;-80
2023/07/11 04:25:19;;;;;;;4.38;2.63;;;16.50;38.40;;;;;;4932664;29;20063;-81
2023/07/11 04:27:48;;;;;;;5.32;2.92;;;16.60;17.00;;;;;;4939952;29;20063;-80
2023/07/11 04:30:14;;;;;;;4.80;2.50;;;16.80;8.00;;;;;;4952652;29;20031;-81
2023/07/11 04:32:40;;;;;;;4.93;2.80;;;17.20;1.00;;;;;;4934454;29;20498;-81
2023/07/11 04:35:12;;;;;;;3.63;2.72;;;17.40;1.00;;;;;;4951392;29;20035;-81
2023/07/11 04:37:38;;;;;;;5.68;2.85;;;17.60;1.00;;;;;;4950699;29;20057;-81
2023/07/11 04:40:06;;;;;;;5.13;3.10;;;17.70;1.00;;;;;;4949304;29;20031;-81
2023/07/11 04:42:32;;;;;;;4.82;3.47;;;18.00;1.00;;;;;;4933117;29;20047;-80
2023/07/11 04:44:58;;;;;;;5.30;2.47;;;18.20;1.00;;;;;;4949966;29;20486;-80
2023/07/11 04:47:25;;;;;;;8.48;2.92;;;18.40;1.00;;;;;;4953330;29;20031;-81
2023/07/11 04:49:51;;;;;;;5.03;2.65;;;18.40;1.00;;;;;;4950640;29;20673;-81
2023/07/11 04:52:17;;;;;;;4.28;2.42;;;18.60;1.00;;;;;;4937314;29;20402;-81
2023/07/11 04:54:44;;;;;;;3.78;2.15;;;18.90;1.00;;;;;;4934510;29;20422;-82
2023/07/11 04:57:10;;;;;;;8.77;2.80;;;19.40;1.00;;;;;;4934698;29;20046;-81
2023/07/11 04:59:36;;;;;;;4.18;2.92;;;19.90;99.90;;;;;;4953267;29;20042;-81
2023/07/11 05:02:02;;;;;;;6.13;2.47;;;20.10;99.90;;;;;;4951545;29;20031;-81
2023/07/11 05:04:28;;;;;;;5.55;2.78;;;20.40;99.90;;;;;;4948570;29;20047;-82
2023/07/11 05:06:55;;;;;;;4.22;2.35;;;20.70;99.90;;;;;;4933573;29;20084;-81
2023/07/11 05:09:21;;;;;;;5.15;3.08;;;20.80;99.90;;;;;;4934758;29;20057;-82
2023/07/11 05:11:48;;;;;;;3.80;2.53;;;20.90;99.90;;;;;;4951080;29;20459;-81
2023/07/11 05:14:15;;;;;;;4.03;2.40;;;21.10;99.90;;;;;;4934546;29;20058;-82
2023/07/11 05:16:41;;;;;;;4.32;2.95;;;21.20;99.90;;;;;;4925093;29;20043;-82
2023/07/11 05:19:07;;;;;;;3.42;2.45;;;21.40;99.90;;;;;;4951293;29;20637;-80
2023/07/11 05:21:33;;;;;;;3.85;2.50;;;21.50;99.90;;;;;;4953003;29;20035;-81
2023/07/11 05:24:01;;;;;;;6.40;3.05;;;21.60;99.90;;;;;;4930428;29;20051;-82
2023/07/11 05:26:28;;;;;;;4.75;3.00;;;21.60;99.90;;;;;;4950008;29;20070;-81
2023/07/11 05:28:54;;;;;;;5.72;3.33;;;21.50;99.90;;;;;;4951772;29;20031;-81
2023/07/11 05:31:20;;;;;;;3.08;2.42;;;21.40;99.90;;;;;;4933195;29;20035;-82
2023/07/11 05:33:47;;;;;;;4.32;2.97;;;21.70;99.90;;;;;;4950602;29;20451;-82
2023/07/11 05:36:31;;;;;;;5.15;3.10;;;21.90;99.90;;;;;;4950078;29;20036;-80
2023/07/11 05:39:13;;;;;;;4.47;2.15;;;21.80;99.90;;;;;;4949153;29;20450;-83
2023/07/11 05:41:45;;;;;;;5.10;3.28;;;22.10;99.90;;;;;;4950710;29;20054;-82
2023/07/11 05:44:14;;;;;;;5.07;2.75;;;22.50;99.90;;;;;;4932576;29;20043;-82
2023/07/11 05:46:40;;;;;;;7.05;2.63;;;22.70;99.90;;;;;;4949173;29;20047;-83
2023/07/11 05:49:07;;;;;;;4.53;2.60;;;22.80;87.00;;;;;;4951720;29;20040;-84
2023/07/11 05:51:34;;;;;;;6.20;2.38;;;22.80;90.00;;;;;;4932747;29;20050;-83
2023/07/11 05:54:01;;;;;;;5.70;3.10;;;22.90;90.30;;;;;;4950131;29;20387;-83
2023/07/11 05:56:27;;;;;;;3.95;2.72;;;23.00;64.70;;;;;;4934300;29;20040;-81
2023/07/11 05:58:54;;;;;;;4.43;2.55;;;23.10;66.90;;;;;;4930719;29;20043;-81
2023/07/11 06:01:23;;;;;;;6.65;3.35;;;23.40;54.10;;;;;;4949217;29;20031;-82
2023/07/11 06:03:51;;;;;;;4.20;2.80;;;23.50;30.20;;;;;;4932359;29;20058;-83
2023/07/11 06:06:19;;;;;;;5.22;2.83;;;23.50;26.20;;;;;;4950558;29;20062;-81
2023/07/11 06:08:46;;;;;;;4.28;2.35;;;23.50;25.20;;;;;;4950077;29;20040;-83
2023/07/11 06:11:12;;;;;;;4.63;2.55;;;24.00;10.90;;;;;;4934999;29;20043;-82
2023/07/11 06:13:39;;;;;;;3.20;2.22;;;23.50;17.40;;;;;;4955365;29;20035;-83
2023/07/11 06:16:14;;;;;;;3.95;2.25;;;23.40;20.70;;;;;;4954843;29;20031;-86
2023/07/11 06:18:40;;;;;;;8.18;3.22;;;23.50;24.30;;;;;;4958646;29;20035;-86
2023/07/11 06:21:08;;;;;;;4.00;2.40;;;23.60;28.00;;;;;;4936683;29;20031;-86
2023/07/11 06:23:34;;;;;;;4.03;2.53;;;23.80;28.10;;;;;;4954952;29;20046;-85
2023/07/11 06:26:01;;;;;;;5.13;2.90;;;24.40;22.30;;;;;;4953449;29;20062;-84
2023/07/11 06:28:27;;;;;;;6.45;3.08;;;24.40;19.40;;;;;;4956156;29;20474;-86
2023/07/11 06:31:00;;;;;;;6.18;2.60;;;24.20;21.90;;;;;;4953775;29;20478;-82
2023/07/11 06:33:29;;;;;;;3.90;2.97;;;24.40;34.20;;;;;;4952512;29;20045;-85
2023/07/11 06:35:55;;;;;;;4.82;2.47;;;24.70;5.00;;;;;;4952705;29;20031;-85
2023/07/11 06:38:21;;;;;;;4.70;3.15;;;24.40;12.10;;;;;;4955396;29;20070;-85
2023/07/11 06:40:53;;;;;;;5.60;2.97;;;25.10;4.70;;;;;;4955316;29;20035;-86
2023/07/11 06:43:21;;;;;;;4.45;2.90;;;25.70;1.00;;;;;;4953319;29;20035;-86
2023/07/11 06:45:49;;;;;;;5.90;3.45;;;25.00;3.00;;;;;;4918745;29;20054;-85
2023/07/11 06:48:16;;;;;;;7.40;2.90;;;25.50;1.00;;;;;;4951311;29;20046;-86
2023/07/11 06:50:50;;;;;;;8.48;2.83;;;26.40;1.00;;;;;;4954901;29;20046;-86
2023/07/11 06:53:18;;;;;;;4.90;2.72;;;26.60;1.00;;;;;;4932242;29;20152;-85
2023/07/11 06:55:49;;;;;;;3.65;2.45;;;27.50;1.00;;;;;;4951001;29;20466;-84
2023/07/11 06:58:16;;;;;;;4.50;3.10;;;28.10;1.00;;;;;;4951056;29;20026;-84
2023/07/11 07:00:42;;;;;;;5.95;2.85;;;27.80;1.00;;;;;;4954882;29;20058;-84
2023/07/11 07:03:13;;;;;;;6.40;3.10;;;26.70;1.00;;;;;;4954841;29;20031;-85
2023/07/11 07:05:50;;;;;;;5.82;2.80;;;25.60;1.00;;;;;;4953248;29;20051;-84
2023/07/11 07:08:18;;;;;;;8.40;3.00;;;26.30;1.00;;;;;;4934418;29;20044;-83
2023/07/11 07:10:45;;;;;;;4.72;2.70;;;27.70;1.00;;;;;;4953877;29;20039;-84
2023/07/11 07:13:11;;;;;;;6.90;3.10;;;28.50;1.00;;;;;;4953359;29;20035;-84
2023/07/11 07:15:38;;;;;;;5.07;2.38;;;27.00;1.00;;;;;;4958851;29;20038;-84
2023/07/11 07:18:04;;;;;;;7.15;3.28;;;27.30;1.00;;;;;;4960370;29;20055;-84
2023/07/11 07:20:30;;;;;;;5.03;2.85;;;28.20;1.00;;;;;;4954585;28;20027;-85
2023/07/11 07:22:56;;;;;;;4.25;2.78;;;27.70;1.00;;;;;;4954114;29;20038;-83
2023/07/11 07:25:22;;;;;;;8.10;3.10;;;27.90;1.00;;;;;;4956727;29;20055;-83
2023/07/11 07:27:48;;;;;;;4.38;2.42;;;27.50;1.00;;;;;;4956009;29;20056;-82
2023/07/11 07:30:14;;;;;;;5.22;2.88;;;28.20;1.00;;;;;;4954818;29;20617;-82
2023/07/11 07:32:41;;;;;;;5.45;2.78;;;28.90;1.00;;;;;;4954892;29;20466;-82
2023/07/11 07:35:07;;;;;;;5.15;2.85;;;29.10;1.00;;;;;;4954662;29;20046;-82
2023/07/11 07:37:35;;;;;;;6.22;2.58;;;30.00;1.00;;;;;;4956338;29;20035;-84
2023/07/11 07:40:01;;;;;;;3.22;2.15;;;28.30;1.00;;;;;;4936560;29;20039;-83
2023/07/11 07:42:27;;;;;;;4.00;2.33;;;27.90;1.00;;;;;;4955201;29;20046;-82
2023/07/11 07:44:55;;;;;;;5.55;2.95;;;28.10;1.00;;;;;;4957192;29;20031;-80
2023/07/11 07:47:21;;;;;;;3.38;2.03;;;27.80;1.00;;;;;;4953865;29;20036;-81
2023/07/11 07:49:47;;;;;;;6.30;2.90;;;28.50;1.00;;;;;;4951534;29;20054;-81
2023/07/11 07:52:13;;;;;;;6.85;3.03;;;29.20;1.00;;;;;;4953026;29;20050;-82
2023/07/11 07:54:39;;;;;;;8.55;2.83;;;28.90;1.00;;;;;;4921271;29;20047;-82
2023/07/11 07:57:06;;;;;;;11.95;3.05;;;29.30;1.00;;;;;;4954322;29;20402;-82
2023/07/11 07:59:32;;;;;;;7.80;3.85;;;28.90;1.00;;;;;;4968818;29;20035;-81
2023/07/11 08:01:58;;;;;;;6.55;3.08;;;29.50;1.00;;;;;;4955455;29;20042;-83
2023/07/11 08:04:24;;;;;;;5.53;3.03;;;29.40;1.00;;;;;;4936063;29;20048;-82
2023/07/11 08:06:51;;;;;;;7.63;3.38;;;28.90;1.00;;;;;;4954268;29;20051;-82
2023/07/11 08:09:18;;;;;;;9.10;4.10;;;29.00;1.00;;;;;;4954212;29;20027;-82
2023/07/11 08:11:44;;;;;;;8.32;3.92;;;29.50;1.00;;;;;;4928986;29;20060;-82
2023/07/11 08:14:10;;;;;;;5.00;3.25;;;29.20;1.00;;;;;;4950906;29;20028;-82
2023/07/11 08:16:38;;;;;;;6.15;3.40;;;29.20;1.00;;;;;;4953237;29;20027;-81
2023/07/11 08:19:05;;;;;;;6.45;3.28;;;29.60;1.00;;;;;;4953629;29;20032;-82
2023/07/11 08:21:32;;;;;;;6.05;3.42;;;30.70;1.00;;;;;;4953842;29;20035;-83
2023/07/11 08:23:58;;;;;;;6.55;2.65;;;31.20;1.00;;;;;;4949947;29;20046;-84
2023/07/11 08:26:25;;;;;;;4.43;2.75;;;31.60;1.00;;;;;;4950806;29;20136;-83
2023/07/11 08:28:51;;;;;;;6.13;3.20;;;32.90;1.00;;;;;;4953385;29;20044;-84
2023/07/11 08:31:18;;;;;;;4.80;3.70;;;33.00;1.00;;;;;;4949609;29;20066;-83
2023/07/11 08:33:44;;;;;;;5.60;3.38;;;33.10;1.00;;;;;;4949091;28;20031;-82
2023/07/11 08:36:10;;;;;;;5.55;3.20;;;32.30;1.00;;;;;;4940472;29;20046;-82
2023/07/11 08:38:36;;;;;;;10.00;3.75;;;31.80;1.00;;;;;;4961880;29;20035;-83
2023/07/11 08:41:30;;;;;;;4.63;2.90;;;32.40;1.00;;;;;;4955058;29;20039;-82
2023/07/11 08:44:08;;;;;;;11.68;3.95;;;33.20;1.00;;;;;;4950293;29;20031;-83
2023/07/11 08:46:44;;;;;;;5.03;3.20;;;34.00;99.90;;;;;;4953164;29;20104;-83
2023/07/11 08:49:25;;;;;;;5.97;3.15;;;34.70;99.90;;;;;;4951370;29;20427;-83
2023/07/11 08:51:54;;;;;;;4.90;3.40;;;31.70;1.00;;;;;;4952797;29;20047;-83
2023/07/11 08:54:28;;;;;;;5.53;3.28;;;31.70;1.00;;;;;;4949997;29;20758;-83
2023/07/11 08:56:56;;;;;;;9.38;3.17;;;32.10;1.00;;;;;;4952291;29;20039;-83
2023/07/11 08:59:31;;;;;;;6.32;3.50;;;31.60;1.00;;;;;;4954132;29;20031;-84
2023/07/11 09:02:09;;;;;;;9.48;4.28;;;33.10;1.00;;;;;;4952318;29;20042;-83
2023/07/11 09:04:46;;;;;;;8.25;3.63;;;34.00;1.00;;;;;;4952125;29;20035;-85
2023/07/11 09:07:32;;;;;;;5.85;4.47;;;34.30;99.90;;;;;;4950451;29;20043;-85
2023/07/11 09:09:58;;;;;;;6.45;4.03;;;35.10;99.90;;;;;;4951160;29;20055;-82
2023/07/11 09:12:44;;;;;;;8.75;3.90;;;35.20;99.90;;;;;;4952556;29;20382;-81
2023/07/11 09:15:21;;;;;;;5.85;3.65;;;35.20;99.90;;;;;;4951524;29;20035;-82
2023/07/11 09:17:50;;;;;;;12.40;4.22;;;35.80;99.90;;;;;;4926893;29;20044;-82
2023/07/11 09:20:36;;;;;;;5.47;3.25;;;36.40;99.90;;;;;;4951639;29;20046;-83
2023/07/11 09:23:29;;;;;;;4.28;3.20;;;36.00;99.90;;;;;;4949729;29;20042;-83
2023/07/11 09:26:00;;;;;;;6.13;3.85;;;35.50;99.90;;;;;;4949864;29;20067;-83
2023/07/11 09:28:29;;;;;;;10.35;3.28;;;35.50;99.90;;;;;;4950022;29;20031;-82
2023/07/11 09:31:00;;;;;;;14.27;3.53;;;35.40;99.90;;;;;;4948772;29;20403;-82
2023/07/11 09:33:37;;;;;;;8.68;3.58;;;34.90;1.00;;;;;;4950890;29;20050;-82
2023/07/11 09:36:20;;;;;;;5.80;3.22;;;36.00;99.90;;;;;;4929826;29;20031;-84
2023/07/11 09:38:56;;;;;;;6.18;3.03;;;35.90;99.90;;;;;;4950297;29;20414;-82
2023/07/11 09:41:39;;;;;;;5.05;3.55;;;34.00;1.00;;;;;;4950834;29;20054;-82
2023/07/11 09:44:10;;;;;;;6.28;3.15;;;34.50;1.00;;;;;;4951960;28;20414;-81
2023/07/11 09:46:37;;;;;;;5.47;3.03;;;33.70;1.00;;;;;;4955977;29;20047;-82
2023/07/11 09:49:07;;;;;;;5.05;3.10;;;34.20;1.00;;;;;;4949349;29;20035;-82
2023/07/11 09:51:44;;;;;;;5.07;3.05;;;34.00;1.00;;;;;;4952257;28;20051;-82
2023/07/11 09:54:41;;;;;;;4.07;2.80;;;32.80;1.00;;;;;;4949115;29;20031;-83
2023/07/11 09:57:11;;;;;;;5.07;2.65;;;33.50;1.00;;;;;;4949417;29;20050;-82
2023/07/11 09:59:42;;;;;;;4.80;3.50;;;33.90;1.00;;;;;;4950503;29;20027;-82
2023/07/11 10:02:15;;;;;;;5.28;3.13;;;33.60;1.00;;;;;;4949003;29;20042;-82
2023/07/11 10:04:42;;;;;;;5.50;2.88;;;33.90;1.00;;;;;;4950153;29;20047;-83
2023/07/11 10:07:15;;;;;;;4.35;3.17;;;34.40;1.00;;;;;;4950765;29;20042;-82
2023/07/11 10:09:48;;;;;;;3.90;2.95;;;34.30;1.00;;;;;;4951706;29;20031;-81
2023/07/11 10:12:24;;;;;;;5.15;3.33;;;33.90;1.00;;;;;;4951112;29;20050;-82
2023/07/11 10:14:57;;;;;;;6.97;3.30;;;33.10;1.00;;;;;;4950936;29;20043;-85
2023/07/11 10:17:26;;;;;;;5.13;2.38;;;33.10;1.00;;;;;;4949381;29;20034;-84
2023/07/11 10:19:58;;;;;;;5.20;3.30;;;32.30;1.00;;;;;;4951301;29;20027;-86
2023/07/11 10:22:27;;;;;;;3.47;2.15;;;32.20;1.00;;;;;;4950258;29;20112;-81
2023/07/11 10:25:18;;;;;;;8.30;3.53;;;32.60;1.00;;;;;;4951399;29;20406;-81
2023/07/11 10:27:52;;;;;;;4.85;3.53;;;33.10;1.00;;;;;;4950719;29;20051;-82
2023/07/11 10:30:22;;;;;;;5.55;2.78;;;32.80;1.00;;;;;;4950004;29;20040;-85
2023/07/11 10:32:58;;;;;;;4.88;2.72;;;32.70;1.00;;;;;;4950104;29;20042;-82
2023/07/11 10:35:25;;;;;;;5.05;2.72;;;32.60;1.00;;;;;;4950523;29;20385;-81
2023/07/11 10:38:01;;;;;;;6.07;2.67;;;32.70;1.00;;;;;;4950884;29;20039;-85
2023/07/11 10:40:30;;;;;;;6.15;3.08;;;32.90;1.00;;;;;;4950742;29;20035;-81
2023/07/11 10:43:25;;;;;;;5.78;3.10;;;33.20;1.00;;;;;;4949416;29;20470;-82
2023/07/11 10:45:56;;;;;;;4.25;2.40;;;32.90;1.00;;;;;;4951231;29;20043;-82
2023/07/11 10:48:32;;;;;;;4.43;2.53;;;32.90;1.00;;;;;;4945981;29;20035;-81
2023/07/11 10:51:22;;;;;;;6.70;3.60;;;32.90;1.00;;;;;;4951615;29;20051;-82
2023/07/11 10:53:56;;;;;;;6.13;2.85;;;33.00;1.00;;;;;;4950983;29;20042;-82
2023/07/11 10:56:26;;;;;;;4.80;3.17;;;32.90;1.00;;;;;;4950909;28;20059;-82
2023/07/11 10:58:54;;;;;;;4.72;2.20;;;32.80;1.00;;;;;;4954300;29;20078;-80
2023/07/11 11:01:26;;;;;;;4.75;3.00;;;32.50;1.00;;;;;;4954004;29;20383;-81
2023/07/11 11:04:07;;;;;;;6.15;2.90;;;32.30;1.00;;;;;;4934231;29;20042;-82
2023/07/11 11:07:18;;;;;;;6.35;2.80;;;32.90;1.00;;;;;;4935048;29;20054;-83
2023/07/11 11:10:12;;;;;;;5.15;2.97;;;33.20;1.00;;;;;;4906796;29;20039;-81
2023/07/11 11:13:01;;;;;;;5.18;3.08;;;33.20;1.00;;;;;;4952487;29;20043;-80
2023/07/11 11:15:33;;;;;;;5.68;3.20;;;33.20;1.00;;;;;;4941883;29;20478;-81
2023/07/11 11:18:14;;;;;;;4.45;3.58;;;32.90;1.00;;;;;;4938526;29;20059;-84
2023/07/11 11:20:46;;;;;;;5.15;2.67;;;32.90;1.00;;;;;;4943098;29;20046;-85
2023/07/11 11:23:43;;;;;;;4.30;2.97;;;33.10;1.00;;;;;;4942564;29;20047;-87
2023/07/11 11:26:46;;;;;;;5.38;3.95;;;33.50;1.00;;;;;;4944847;29;20086;-82
2023/07/11 11:29:43;;;;;;;5.50;3.45;;;33.40;1.00;;;;;;4945047;29;20058;-81
2023/07/11 11:32:24;;;;;;;4.18;2.60;;;33.40;1.00;;;;;;4943171;29;20051;-82
2023/07/11 11:35:15;;;;;;;6.30;3.58;;;33.30;1.00;;;;;;4931144;29;20054;-84
2023/07/11 11:38:04;;;;;;;5.00;3.50;;;33.70;1.00;;;;;;4943321;29;20071;-82
2023/07/11 11:40:33;;;;;;;;;;;33.90;1.00;;;;;;4945702;29;20051;-83
2023/07/11 11:43:05;;;;;;;8.35;3.58;;;33.70;1.00;;;;;;4945496;29;19911;-86
2023/07/11 11:45:32;;;;;;;7.63;3.58;;;33.50;1.00;;;;;;4948016;29;20525;-88
2023/07/11 11:48:02;;;;;;;7.53;3.45;;;33.70;1.00;;;;;;4944077;29;20039;-88
2023/07/11 11:50:31;;;;;;;5.82;3.38;;;33.60;1.00;;;;;;4928299;29;20055;-84
2023/07/11 11:53:23;;;;;;;13.73;4.43;;;33.50;1.00;;;;;;4933397;29;20047;-83
2023/07/11 11:56:03;;;;;;;8.20;4.28;;;33.60;1.00;;;;;;4930338;29;20043;-84
2023/07/11 11:58:32;;;;;;;5.72;3.55;;;33.90;1.00;;;;;;4934774;29;20036;-82
2023/07/11 12:00:58;;;;;;;8.70;3.37;;;34.10;1.00;;;;;;4935594;29;20036;-85
2023/07/11 12:03:39;;;;;;;9.55;4.22;;;33.90;1.00;;;;;;4931486;29;20295;-83
2023/07/11 12:06:36;;;;;;;7.78;3.75;;;33.80;1.00;;;;;;4932002;29;20039;-84
2023/07/11 12:09:17;;;;;;;8.85;4.55;;;34.20;1.00;;;;;;4934424;29;20043;-83
2023/07/11 12:12:05;;;;;;;5.43;3.72;;;33.50;1.00;;;;;;4936755;29;20031;-81
2023/07/11 12:14:37;;;;;;;6.95;3.72;;;33.20;1.00;;;;;;4937858;29;20044;-79
2023/07/11 12:17:05;;;;;;;6.00;3.83;;;33.40;1.00;;;;;;4935557;29;20039;-80
2023/07/11 12:19:37;;;;;;;6.95;4.63;;;33.40;1.00;;;;;;4937343;29;20043;-80
2023/07/11 12:22:07;;;;;;;4.35;3.10;;;33.90;1.00;;;;;;4938739;29;20036;-82
2023/07/11 12:24:33;;;;;;;8.02;4.18;;;34.10;1.00;;;;;;4932358;29;20047;-89
2023/07/11 12:27:28;;;;;;;7.97;3.63;;;34.10;1.00;;;;;;4946267;29;20055;-88
2023/07/11 12:29:55;;;;;;;7.03;4.18;;;34.20;1.00;;;;;;4938572;29;20047;-84
2023/07/11 12:32:33;;;;;;;6.40;3.28;;;34.30;1.00;;;;;;4954045;29;20035;-84
2023/07/11 12:35:05;;;;;;;3.70;2.80;;;34.70;1.00;;;;;;4950796;29;20064;-85
2023/07/11 12:37:36;;;;;;;7.32;3.13;;;35.00;1.00;;;;;;4951317;29;20031;-84
2023/07/11 12:40:15;;;;;;;4.78;2.83;;;35.10;1.00;;;;;;4953555;29;20054;-82
2023/07/11 12:42:51;;;;;;;4.43;2.77;;;35.00;1.00;;;;;;4950623;29;20027;-82
2023/07/11 12:45:21;;;;;;;6.35;3.28;;;34.50;1.00;;;;;;4952104;29;20035;-85
2023/07/11 12:48:08;;;;;;;6.78;3.15;;;34.70;1.00;;;;;;4953549;29;20057;-82
2023/07/11 12:50:44;;;;;;;7.57;3.40;;;35.00;1.00;;;;;;4952127;29;20035;-85
2023/07/11 12:53:10;;;;;;;4.75;2.90;;;35.20;1.00;;;;;;4952800;29;20035;-88
2023/07/11 12:55:37;;;;;;;3.50;2.42;;;35.20;1.00;;;;;;4950457;29;20035;-84
2023/07/11 12:58:03;;;;;;;4.93;2.78;;;35.30;1.00;;;;;;4953825;29;20482;-84
2023/07/11 13:00:31;;;;;;;3.70;2.78;;;35.50;1.00;;;;;;4952965;29;20031;-81
2023/07/11 13:03:26;;;;;;;4.40;3.28;;;35.70;1.00;;;;;;4950589;29;20031;-84
2023/07/11 13:06:00;;;;;;;6.97;2.85;;;35.70;1.00;;;;;;4950846;29;20043;-84
2023/07/11 13:08:32;;;;;;;4.60;3.47;;;35.70;1.00;;;;;;4951676;29;20035;-85